sensor_id;sensor_type;location;lat;lon;timestamp;P1;durP1;ratioP1;P2;durP2;ratioP2
47413;SDS011;33163;0.000;0.000;2023-10-08T00:02:16;9.52;;;3.30;;
47413;SDS011;33163;0.000;0.000;2023-10-08T00:04:47;11.65;;;4.15;;
47413;SDS011;33163;0.000;0.000;2023-10-08T00:07:16;9.15;;;3.78;;
47413;SDS011;33163;0.000;0.000;2023-10-08T00:09:46;11.18;;;3.90;;
47413;SDS011;33163;0.000;0.000;2023-10-08T00:12:13;8.40;;;3.33;;
47413;SDS011;33163;0.000;0.000;2023-10-08T00:14:41;9.23;;;4.03;;
47413;SDS011;33163;0.000;0.000;2023-10-08T00:17:10;9.98;;;4.20;;
47413;SDS011;33163;0.000;0.000;2023-10-08T00:19:39;9.40;;;3.85;;
47413;SDS011;33163;0.000;0.000;2023-10-08T00:22:08;13.57;;;3.38;;
47413;SDS011;33163;0.000;0.000;2023-10-08T00:24:35;10.02;;;3.45;;
47413;SDS011;33163;0.000;0.000;2023-10-08T00:27:06;10.85;;;3.95;;
47413;SDS011;33163;0.000;0.000;2023-10-08T00:29:33;14.05;;;4.28;;
47413;SDS011;33163;0.000;0.000;2023-10-08T00:32:04;9.13;;;4.28;;
47413;SDS011;33163;0.000;0.000;2023-10-08T00:34:36;11.70;;;4.05;;
47413;SDS011;33163;0.000;0.000;2023-10-08T00:37:08;12.93;;;4.82;;
47413;SDS011;33163;0.000;0.000;2023-10-08T00:39:36;13.27;;;4.30;;
47413;SDS011;33163;0.000;0.000;2023-10-08T00:42:05;14.93;;;4.18;;
47413;SDS011;33163;0.000;0.000;2023-10-08T00:44:32;7.68;;;3.35;;
47413;SDS011;33163;0.000;0.000;2023-10-08T00:47:06;14.70;;;3.78;;
47413;SDS011;33163;0.000;0.000;2023-10-08T00:49:35;11.73;;;4.25;;
47413;SDS011;33163;0.000;0.000;2023-10-08T00:52:14;7.90;;;3.70;;
47413;SDS011;33163;0.000;0.000;2023-10-08T00:54:58;13.13;;;4.63;;
47413;SDS011;33163;0.000;0.000;2023-10-08T00:57:39;10.63;;;3.67;;
47413;SDS011;33163;0.000;0.000;2023-10-08T01:00:08;10.23;;;4.05;;
47413;SDS011;33163;0.000;0.000;2023-10-08T01:02:42;9.45;;;3.60;;
47413;SDS011;33163;0.000;0.000;2023-10-08T01:05:11;8.50;;;3.67;;
47413;SDS011;33163;0.000;0.000;2023-10-08T01:07:45;13.77;;;4.45;;
47413;SDS011;33163;0.000;0.000;2023-10-08T01:10:13;14.32;;;4.45;;
47413;SDS011;33163;0.000;0.000;2023-10-08T01:12:45;9.23;;;3.92;;
47413;SDS011;33163;0.000;0.000;2023-10-08T01:15:28;6.63;;;3.17;;
47413;SDS011;33163;0.000;0.000;2023-10-08T01:17:56;10.98;;;4.22;;
47413;SDS011;33163;0.000;0.000;2023-10-08T01:20:25;7.75;;;4.30;;
47413;SDS011;33163;0.000;0.000;2023-10-08T01:23:02;9.98;;;4.10;;
47413;SDS011;33163;0.000;0.000;2023-10-08T01:25:31;7.40;;;3.35;;
47413;SDS011;33163;0.000;0.000;2023-10-08T01:27:59;14.48;;;4.03;;
47413;SDS011;33163;0.000;0.000;2023-10-08T01:30:33;12.52;;;4.28;;
47413;SDS011;33163;0.000;0.000;2023-10-08T01:33:01;12.68;;;3.90;;
47413;SDS011;33163;0.000;0.000;2023-10-08T01:35:29;10.18;;;4.10;;
47413;SDS011;33163;0.000;0.000;2023-10-08T01:37:57;14.20;;;4.65;;
47413;SDS011;33163;0.000;0.000;2023-10-08T01:40:26;10.70;;;4.03;;
47413;SDS011;33163;0.000;0.000;2023-10-08T01:42:54;10.38;;;4.00;;
47413;SDS011;33163;0.000;0.000;2023-10-08T01:45:24;13.52;;;4.65;;
47413;SDS011;33163;0.000;0.000;2023-10-08T01:47:51;9.10;;;4.03;;
47413;SDS011;33163;0.000;0.000;2023-10-08T01:50:20;7.18;;;3.70;;
47413;SDS011;33163;0.000;0.000;2023-10-08T01:52:47;8.68;;;3.88;;
47413;SDS011;33163;0.000;0.000;2023-10-08T01:55:14;10.55;;;4.05;;
47413;SDS011;33163;0.000;0.000;2023-10-08T01:57:45;8.63;;;4.05;;
47413;SDS011;33163;0.000;0.000;2023-10-08T02:00:13;9.95;;;4.53;;
47413;SDS011;33163;0.000;0.000;2023-10-08T02:02:44;8.88;;;4.55;;
47413;SDS011;33163;0.000;0.000;2023-10-08T02:05:11;10.27;;;4.43;;
47413;SDS011;33163;0.000;0.000;2023-10-08T02:07:40;9.82;;;4.30;;
47413;SDS011;33163;0.000;0.000;2023-10-08T02:10:07;10.45;;;4.32;;
47413;SDS011;33163;0.000;0.000;2023-10-08T02:12:35;7.45;;;3.63;;
47413;SDS011;33163;0.000;0.000;2023-10-08T02:15:04;7.28;;;4.00;;
47413;SDS011;33163;0.000;0.000;2023-10-08T02:17:32;8.10;;;3.63;;
47413;SDS011;33163;0.000;0.000;2023-10-08T02:19:59;12.10;;;4.60;;
47413;SDS011;33163;0.000;0.000;2023-10-08T02:22:25;10.63;;;4.40;;
47413;SDS011;33163;0.000;0.000;2023-10-08T02:24:52;10.32;;;4.38;;
47413;SDS011;33163;0.000;0.000;2023-10-08T02:27:26;10.25;;;4.20;;
47413;SDS011;33163;0.000;0.000;2023-10-08T02:29:53;8.75;;;3.65;;
47413;SDS011;33163;0.000;0.000;2023-10-08T02:32:21;9.63;;;4.43;;
47413;SDS011;33163;0.000;0.000;2023-10-08T02:34:48;12.38;;;4.72;;
47413;SDS011;33163;0.000;0.000;2023-10-08T02:37:15;9.73;;;4.05;;
47413;SDS011;33163;0.000;0.000;2023-10-08T02:39:44;10.15;;;4.97;;
47413;SDS011;33163;0.000;0.000;2023-10-08T02:42:11;10.25;;;4.78;;
47413;SDS011;33163;0.000;0.000;2023-10-08T02:44:39;7.35;;;3.80;;
47413;SDS011;33163;0.000;0.000;2023-10-08T02:47:07;13.02;;;4.57;;
47413;SDS011;33163;0.000;0.000;2023-10-08T02:49:38;8.10;;;3.97;;
47413;SDS011;33163;0.000;0.000;2023-10-08T02:52:06;8.85;;;3.92;;
47413;SDS011;33163;0.000;0.000;2023-10-08T02:54:34;10.15;;;4.40;;
47413;SDS011;33163;0.000;0.000;2023-10-08T02:57:02;9.10;;;4.32;;
47413;SDS011;33163;0.000;0.000;2023-10-08T02:59:35;12.90;;;4.72;;
47413;SDS011;33163;0.000;0.000;2023-10-08T03:02:05;12.15;;;4.38;;
47413;SDS011;33163;0.000;0.000;2023-10-08T03:04:39;9.02;;;3.90;;
47413;SDS011;33163;0.000;0.000;2023-10-08T03:07:06;10.32;;;4.68;;
47413;SDS011;33163;0.000;0.000;2023-10-08T03:09:37;7.45;;;3.90;;
47413;SDS011;33163;0.000;0.000;2023-10-08T03:12:07;9.15;;;4.35;;
47413;SDS011;33163;0.000;0.000;2023-10-08T03:14:35;11.13;;;4.22;;
47413;SDS011;33163;0.000;0.000;2023-10-08T03:17:13;10.10;;;4.20;;
47413;SDS011;33163;0.000;0.000;2023-10-08T03:19:46;8.65;;;3.83;;
47413;SDS011;33163;0.000;0.000;2023-10-08T03:22:13;11.10;;;3.80;;
47413;SDS011;33163;0.000;0.000;2023-10-08T03:24:44;6.60;;;3.42;;
47413;SDS011;33163;0.000;0.000;2023-10-08T03:27:13;10.93;;;4.10;;
47413;SDS011;33163;0.000;0.000;2023-10-08T03:29:45;9.55;;;3.67;;
47413;SDS011;33163;0.000;0.000;2023-10-08T03:32:12;8.07;;;4.15;;
47413;SDS011;33163;0.000;0.000;2023-10-08T03:34:43;8.05;;;3.55;;
47413;SDS011;33163;0.000;0.000;2023-10-08T03:37:12;9.18;;;4.72;;
47413;SDS011;33163;0.000;0.000;2023-10-08T03:39:45;9.05;;;4.40;;
47413;SDS011;33163;0.000;0.000;2023-10-08T03:42:25;8.15;;;3.88;;
47413;SDS011;33163;0.000;0.000;2023-10-08T03:44:59;10.68;;;4.35;;
47413;SDS011;33163;0.000;0.000;2023-10-08T03:47:35;6.78;;;3.65;;
47413;SDS011;33163;0.000;0.000;2023-10-08T03:50:04;12.07;;;5.13;;
47413;SDS011;33163;0.000;0.000;2023-10-08T03:52:35;8.48;;;4.72;;
47413;SDS011;33163;0.000;0.000;2023-10-08T03:55:03;10.38;;;4.15;;
47413;SDS011;33163;0.000;0.000;2023-10-08T03:57:38;9.43;;;3.97;;
47413;SDS011;33163;0.000;0.000;2023-10-08T04:00:09;12.52;;;4.38;;
47413;SDS011;33163;0.000;0.000;2023-10-08T04:02:40;6.80;;;3.67;;
47413;SDS011;33163;0.000;0.000;2023-10-08T04:05:12;8.75;;;4.32;;
47413;SDS011;33163;0.000;0.000;2023-10-08T04:07:45;8.27;;;3.80;;
47413;SDS011;33163;0.000;0.000;2023-10-08T04:10:26;10.70;;;4.18;;
47413;SDS011;33163;0.000;0.000;2023-10-08T04:13:14;8.10;;;4.03;;
47413;SDS011;33163;0.000;0.000;2023-10-08T04:15:41;12.55;;;4.47;;
47413;SDS011;33163;0.000;0.000;2023-10-08T04:18:08;7.95;;;4.15;;
47413;SDS011;33163;0.000;0.000;2023-10-08T04:20:37;8.32;;;4.07;;
47413;SDS011;33163;0.000;0.000;2023-10-08T04:23:05;9.30;;;4.00;;
47413;SDS011;33163;0.000;0.000;2023-10-08T04:25:39;7.53;;;4.00;;
47413;SDS011;33163;0.000;0.000;2023-10-08T04:28:06;9.85;;;4.40;;
47413;SDS011;33163;0.000;0.000;2023-10-08T04:30:38;8.88;;;4.38;;
47413;SDS011;33163;0.000;0.000;2023-10-08T04:33:07;11.32;;;4.63;;
47413;SDS011;33163;0.000;0.000;2023-10-08T04:35:39;9.52;;;3.63;;
47413;SDS011;33163;0.000;0.000;2023-10-08T04:38:13;6.30;;;3.80;;
47413;SDS011;33163;0.000;0.000;2023-10-08T04:40:43;8.88;;;3.63;;
47413;SDS011;33163;0.000;0.000;2023-10-08T04:43:14;11.70;;;4.80;;
47413;SDS011;33163;0.000;0.000;2023-10-08T04:45:47;7.90;;;4.28;;
47413;SDS011;33163;0.000;0.000;2023-10-08T04:48:14;10.38;;;3.90;;
47413;SDS011;33163;0.000;0.000;2023-10-08T04:50:47;7.38;;;4.05;;
47413;SDS011;33163;0.000;0.000;2023-10-08T04:53:23;8.38;;;4.38;;
47413;SDS011;33163;0.000;0.000;2023-10-08T04:55:56;13.60;;;4.20;;
47413;SDS011;33163;0.000;0.000;2023-10-08T04:58:27;10.60;;;4.18;;
47413;SDS011;33163;0.000;0.000;2023-10-08T05:00:58;10.40;;;4.78;;
47413;SDS011;33163;0.000;0.000;2023-10-08T05:03:42;8.25;;;4.15;;
47413;SDS011;33163;0.000;0.000;2023-10-08T05:06:22;10.30;;;4.30;;
47413;SDS011;33163;0.000;0.000;2023-10-08T05:09:15;8.10;;;3.83;;
47413;SDS011;33163;0.000;0.000;2023-10-08T05:11:48;10.32;;;4.38;;
47413;SDS011;33163;0.000;0.000;2023-10-08T05:14:36;11.23;;;4.15;;
47413;SDS011;33163;0.000;0.000;2023-10-08T05:17:20;9.40;;;4.70;;
47413;SDS011;33163;0.000;0.000;2023-10-08T05:19:47;9.80;;;3.95;;
47413;SDS011;33163;0.000;0.000;2023-10-08T05:22:27;8.80;;;4.18;;
47413;SDS011;33163;0.000;0.000;2023-10-08T05:25:09;9.32;;;4.60;;
47413;SDS011;33163;0.000;0.000;2023-10-08T05:27:51;10.02;;;4.47;;
47413;SDS011;33163;0.000;0.000;2023-10-08T05:30:35;8.60;;;3.97;;
47413;SDS011;33163;0.000;0.000;2023-10-08T05:33:07;7.63;;;3.85;;
47413;SDS011;33163;0.000;0.000;2023-10-08T05:35:50;10.55;;;4.18;;
47413;SDS011;33163;0.000;0.000;2023-10-08T05:38:28;8.25;;;3.92;;
47413;SDS011;33163;0.000;0.000;2023-10-08T05:41:14;9.23;;;3.92;;
47413;SDS011;33163;0.000;0.000;2023-10-08T05:43:56;12.75;;;4.57;;
47413;SDS011;33163;0.000;0.000;2023-10-08T05:46:36;13.18;;;3.60;;
47413;SDS011;33163;0.000;0.000;2023-10-08T05:49:20;8.82;;;3.88;;
47413;SDS011;33163;0.000;0.000;2023-10-08T05:52:07;11.07;;;4.22;;
47413;SDS011;33163;0.000;0.000;2023-10-08T05:54:51;9.48;;;4.20;;
47413;SDS011;33163;0.000;0.000;2023-10-08T05:57:40;9.57;;;4.00;;
47413;SDS011;33163;0.000;0.000;2023-10-08T06:00:12;9.90;;;4.72;;
47413;SDS011;33163;0.000;0.000;2023-10-08T06:02:57;8.13;;;3.97;;
47413;SDS011;33163;0.000;0.000;2023-10-08T06:05:36;10.25;;;4.15;;
47413;SDS011;33163;0.000;0.000;2023-10-08T06:08:12;11.38;;;4.60;;
47413;SDS011;33163;0.000;0.000;2023-10-08T06:10:41;12.02;;;4.60;;
47413;SDS011;33163;0.000;0.000;2023-10-08T06:13:09;8.90;;;4.13;;
47413;SDS011;33163;0.000;0.000;2023-10-08T06:15:39;8.20;;;4.32;;
47413;SDS011;33163;0.000;0.000;2023-10-08T06:18:13;10.40;;;4.03;;
47413;SDS011;33163;0.000;0.000;2023-10-08T06:20:40;9.90;;;3.97;;
47413;SDS011;33163;0.000;0.000;2023-10-08T06:23:08;12.77;;;4.53;;
47413;SDS011;33163;0.000;0.000;2023-10-08T06:25:37;14.10;;;4.85;;
47413;SDS011;33163;0.000;0.000;2023-10-08T06:28:13;5.85;;;3.65;;
47413;SDS011;33163;0.000;0.000;2023-10-08T06:30:41;11.05;;;4.00;;
47413;SDS011;33163;0.000;0.000;2023-10-08T06:33:07;8.52;;;3.40;;
47413;SDS011;33163;0.000;0.000;2023-10-08T06:35:35;9.32;;;3.80;;
47413;SDS011;33163;0.000;0.000;2023-10-08T06:38:02;8.07;;;3.58;;
47413;SDS011;33163;0.000;0.000;2023-10-08T06:40:33;10.25;;;3.60;;
47413;SDS011;33163;0.000;0.000;2023-10-08T06:43:07;10.93;;;3.78;;
47413;SDS011;33163;0.000;0.000;2023-10-08T06:45:51;8.60;;;3.63;;
47413;SDS011;33163;0.000;0.000;2023-10-08T06:48:18;7.38;;;4.22;;
47413;SDS011;33163;0.000;0.000;2023-10-08T06:50:46;8.50;;;3.88;;
47413;SDS011;33163;0.000;0.000;2023-10-08T06:53:14;9.43;;;3.40;;
47413;SDS011;33163;0.000;0.000;2023-10-08T06:55:43;10.05;;;3.47;;
47413;SDS011;33163;0.000;0.000;2023-10-08T06:58:13;9.52;;;3.40;;
47413;SDS011;33163;0.000;0.000;2023-10-08T07:00:40;8.55;;;3.53;;
47413;SDS011;33163;0.000;0.000;2023-10-08T07:03:15;8.77;;;3.05;;
47413;SDS011;33163;0.000;0.000;2023-10-08T07:05:43;5.40;;;2.97;;
47413;SDS011;33163;0.000;0.000;2023-10-08T07:08:19;6.80;;;3.33;;
47413;SDS011;33163;0.000;0.000;2023-10-08T07:10:48;10.63;;;3.95;;
47413;SDS011;33163;0.000;0.000;2023-10-08T07:13:15;9.68;;;3.47;;
47413;SDS011;33163;0.000;0.000;2023-10-08T07:15:42;6.57;;;2.60;;
47413;SDS011;33163;0.000;0.000;2023-10-08T07:18:10;7.32;;;3.58;;
47413;SDS011;33163;0.000;0.000;2023-10-08T07:20:40;11.38;;;3.30;;
47413;SDS011;33163;0.000;0.000;2023-10-08T07:23:11;8.65;;;3.03;;
47413;SDS011;33163;0.000;0.000;2023-10-08T07:25:51;14.32;;;3.83;;
47413;SDS011;33163;0.000;0.000;2023-10-08T07:28:24;14.20;;;3.90;;
47413;SDS011;33163;0.000;0.000;2023-10-08T07:30:52;8.52;;;3.83;;
47413;SDS011;33163;0.000;0.000;2023-10-08T07:33:20;10.27;;;3.42;;
47413;SDS011;33163;0.000;0.000;2023-10-08T07:35:51;9.65;;;3.65;;
47413;SDS011;33163;0.000;0.000;2023-10-08T07:38:22;7.07;;;3.10;;
47413;SDS011;33163;0.000;0.000;2023-10-08T07:40:53;14.40;;;3.78;;
47413;SDS011;33163;0.000;0.000;2023-10-08T07:43:21;8.43;;;3.38;;
47413;SDS011;33163;0.000;0.000;2023-10-08T07:45:48;11.73;;;3.45;;
47413;SDS011;33163;0.000;0.000;2023-10-08T07:48:16;14.38;;;3.35;;
47413;SDS011;33163;0.000;0.000;2023-10-08T07:50:43;22.50;;;6.03;;
47413;SDS011;33163;0.000;0.000;2023-10-08T07:53:13;18.23;;;5.85;;
47413;SDS011;33163;0.000;0.000;2023-10-08T07:55:44;13.35;;;4.40;;
47413;SDS011;33163;0.000;0.000;2023-10-08T07:58:13;11.68;;;3.60;;
47413;SDS011;33163;0.000;0.000;2023-10-08T08:00:41;14.38;;;3.63;;
47413;SDS011;33163;0.000;0.000;2023-10-08T08:03:16;11.20;;;3.75;;
47413;SDS011;33163;0.000;0.000;2023-10-08T08:05:44;14.48;;;3.55;;
47413;SDS011;33163;0.000;0.000;2023-10-08T08:08:12;8.57;;;2.97;;
47413;SDS011;33163;0.000;0.000;2023-10-08T08:10:42;10.00;;;4.18;;
47413;SDS011;33163;0.000;0.000;2023-10-08T08:13:11;10.25;;;3.83;;
47413;SDS011;33163;0.000;0.000;2023-10-08T08:15:45;17.10;;;4.47;;
47413;SDS011;33163;0.000;0.000;2023-10-08T08:18:16;21.02;;;4.57;;
47413;SDS011;33163;0.000;0.000;2023-10-08T08:20:47;12.43;;;3.55;;
47413;SDS011;33163;0.000;0.000;2023-10-08T08:23:16;12.10;;;3.38;;
47413;SDS011;33163;0.000;0.000;2023-10-08T08:25:43;16.02;;;3.78;;
47413;SDS011;33163;0.000;0.000;2023-10-08T08:28:30;14.35;;;3.55;;
47413;SDS011;33163;0.000;0.000;2023-10-08T08:31:01;15.85;;;3.63;;
47413;SDS011;33163;0.000;0.000;2023-10-08T08:33:29;16.00;;;4.53;;
47413;SDS011;33163;0.000;0.000;2023-10-08T08:36:16;16.95;;;4.28;;
47413;SDS011;33163;0.000;0.000;2023-10-08T08:38:44;11.13;;;2.90;;
47413;SDS011;33163;0.000;0.000;2023-10-08T08:41:12;13.43;;;3.30;;
47413;SDS011;33163;0.000;0.000;2023-10-08T08:43:43;16.00;;;3.67;;
47413;SDS011;33163;0.000;0.000;2023-10-08T08:46:11;11.82;;;3.80;;
47413;SDS011;33163;0.000;0.000;2023-10-08T08:48:40;14.32;;;3.22;;
47413;SDS011;33163;0.000;0.000;2023-10-08T08:51:09;7.32;;;2.90;;
47413;SDS011;33163;0.000;0.000;2023-10-08T08:53:37;9.38;;;3.50;;
47413;SDS011;33163;0.000;0.000;2023-10-08T08:56:06;11.82;;;3.13;;
47413;SDS011;33163;0.000;0.000;2023-10-08T08:58:35;9.75;;;2.90;;
47413;SDS011;33163;0.000;0.000;2023-10-08T09:01:03;11.20;;;2.72;;
47413;SDS011;33163;0.000;0.000;2023-10-08T09:03:33;9.70;;;2.55;;
47413;SDS011;33163;0.000;0.000;2023-10-08T09:06:02;10.20;;;3.28;;
47413;SDS011;33163;0.000;0.000;2023-10-08T09:08:32;11.88;;;2.78;;
47413;SDS011;33163;0.000;0.000;2023-10-08T09:11:00;7.43;;;2.67;;
47413;SDS011;33163;0.000;0.000;2023-10-08T09:13:28;13.07;;;3.28;;
47413;SDS011;33163;0.000;0.000;2023-10-08T09:16:02;8.55;;;2.70;;
47413;SDS011;33163;0.000;0.000;2023-10-08T09:18:33;11.02;;;2.65;;
47413;SDS011;33163;0.000;0.000;2023-10-08T09:21:07;9.65;;;2.70;;
47413;SDS011;33163;0.000;0.000;2023-10-08T09:23:40;6.45;;;2.47;;
47413;SDS011;33163;0.000;0.000;2023-10-08T09:26:09;10.70;;;2.90;;
47413;SDS011;33163;0.000;0.000;2023-10-08T09:28:40;10.93;;;2.60;;
47413;SDS011;33163;0.000;0.000;2023-10-08T09:31:11;7.50;;;2.45;;
47413;SDS011;33163;0.000;0.000;2023-10-08T09:33:39;8.70;;;3.08;;
47413;SDS011;33163;0.000;0.000;2023-10-08T09:36:07;15.38;;;3.47;;
47413;SDS011;33163;0.000;0.000;2023-10-08T09:38:36;8.20;;;2.75;;
47413;SDS011;33163;0.000;0.000;2023-10-08T09:41:03;9.90;;;3.40;;
47413;SDS011;33163;0.000;0.000;2023-10-08T09:43:30;5.78;;;2.35;;
47413;SDS011;33163;0.000;0.000;2023-10-08T09:46:03;13.57;;;3.47;;
47413;SDS011;33163;0.000;0.000;2023-10-08T09:48:38;9.32;;;2.75;;
47413;SDS011;33163;0.000;0.000;2023-10-08T09:51:10;11.02;;;3.20;;
47413;SDS011;33163;0.000;0.000;2023-10-08T09:53:40;8.27;;;2.75;;
47413;SDS011;33163;0.000;0.000;2023-10-08T09:56:14;12.55;;;3.55;;
47413;SDS011;33163;0.000;0.000;2023-10-08T09:58:42;15.10;;;3.13;;
47413;SDS011;33163;0.000;0.000;2023-10-08T10:01:12;8.27;;;2.72;;
47413;SDS011;33163;0.000;0.000;2023-10-08T10:03:39;11.18;;;3.65;;
47413;SDS011;33163;0.000;0.000;2023-10-08T10:06:11;9.02;;;3.00;;
47413;SDS011;33163;0.000;0.000;2023-10-08T10:08:39;17.67;;;3.88;;
47413;SDS011;33163;0.000;0.000;2023-10-08T10:11:07;7.68;;;2.80;;
47413;SDS011;33163;0.000;0.000;2023-10-08T10:13:38;8.50;;;2.92;;
47413;SDS011;33163;0.000;0.000;2023-10-08T10:16:06;9.52;;;3.30;;
47413;SDS011;33163;0.000;0.000;2023-10-08T10:18:34;8.90;;;3.03;;
47413;SDS011;33163;0.000;0.000;2023-10-08T10:23:56;9.32;;;2.90;;
47413;SDS011;33163;0.000;0.000;2023-10-08T10:26:27;8.60;;;2.75;;
47413;SDS011;33163;0.000;0.000;2023-10-08T10:31:46;23.70;;;5.65;;
47413;SDS011;33163;0.000;0.000;2023-10-08T10:34:20;21.08;;;5.32;;
47413;SDS011;33163;0.000;0.000;2023-10-08T10:36:50;14.25;;;3.63;;
47413;SDS011;33163;0.000;0.000;2023-10-08T10:39:21;17.75;;;4.75;;
47413;SDS011;33163;0.000;0.000;2023-10-08T10:41:53;20.02;;;5.53;;
47413;SDS011;33163;0.000;0.000;2023-10-08T10:44:22;14.27;;;4.07;;
47413;SDS011;33163;0.000;0.000;2023-10-08T10:46:49;11.75;;;4.05;;
47413;SDS011;33163;0.000;0.000;2023-10-08T10:49:16;19.45;;;4.55;;
47413;SDS011;33163;0.000;0.000;2023-10-08T10:51:47;14.75;;;4.47;;
47413;SDS011;33163;0.000;0.000;2023-10-08T10:54:22;16.85;;;4.53;;
47413;SDS011;33163;0.000;0.000;2023-10-08T10:56:49;19.95;;;4.78;;
47413;SDS011;33163;0.000;0.000;2023-10-08T10:59:28;16.35;;;4.85;;
47413;SDS011;33163;0.000;0.000;2023-10-08T11:02:02;19.42;;;5.25;;
47413;SDS011;33163;0.000;0.000;2023-10-08T11:04:35;26.08;;;5.35;;
47413;SDS011;33163;0.000;0.000;2023-10-08T11:07:12;24.98;;;5.85;;
47413;SDS011;33163;0.000;0.000;2023-10-08T11:09:41;17.63;;;6.10;;
47413;SDS011;33163;0.000;0.000;2023-10-08T11:12:09;19.50;;;5.07;;
47413;SDS011;33163;0.000;0.000;2023-10-08T11:14:37;13.02;;;5.20;;
47413;SDS011;33163;0.000;0.000;2023-10-08T11:17:12;17.45;;;5.15;;
47413;SDS011;33163;0.000;0.000;2023-10-08T11:19:41;15.80;;;5.10;;
47413;SDS011;33163;0.000;0.000;2023-10-08T11:22:11;23.90;;;5.30;;
47413;SDS011;33163;0.000;0.000;2023-10-08T11:24:41;17.10;;;5.45;;
47413;SDS011;33163;0.000;0.000;2023-10-08T11:27:12;16.17;;;5.95;;
47413;SDS011;33163;0.000;0.000;2023-10-08T11:29:43;21.77;;;5.43;;
47413;SDS011;33163;0.000;0.000;2023-10-08T11:32:11;17.55;;;6.38;;
47413;SDS011;33163;0.000;0.000;2023-10-08T11:34:42;22.27;;;6.93;;
47413;SDS011;33163;0.000;0.000;2023-10-08T11:37:10;18.55;;;6.60;;
47413;SDS011;33163;0.000;0.000;2023-10-08T11:39:45;22.33;;;6.07;;
47413;SDS011;33163;0.000;0.000;2023-10-08T11:42:13;18.98;;;6.63;;
47413;SDS011;33163;0.000;0.000;2023-10-08T11:45:05;22.27;;;6.80;;
47413;SDS011;33163;0.000;0.000;2023-10-08T11:47:44;21.73;;;6.00;;
47413;SDS011;33163;0.000;0.000;2023-10-08T11:50:15;22.05;;;6.75;;
47413;SDS011;33163;0.000;0.000;2023-10-08T11:52:44;22.15;;;6.65;;
47413;SDS011;33163;0.000;0.000;2023-10-08T11:55:11;21.02;;;6.00;;
47413;SDS011;33163;0.000;0.000;2023-10-08T11:57:43;24.40;;;6.55;;
47413;SDS011;33163;0.000;0.000;2023-10-08T12:00:14;28.13;;;7.22;;
47413;SDS011;33163;0.000;0.000;2023-10-08T12:02:50;18.25;;;6.45;;
47413;SDS011;33163;0.000;0.000;2023-10-08T12:05:20;20.38;;;6.03;;
47413;SDS011;33163;0.000;0.000;2023-10-08T12:07:49;21.33;;;7.20;;
47413;SDS011;33163;0.000;0.000;2023-10-08T12:10:17;29.52;;;7.45;;
47413;SDS011;33163;0.000;0.000;2023-10-08T12:12:47;26.08;;;6.85;;
47413;SDS011;33163;0.000;0.000;2023-10-08T12:15:15;27.85;;;6.88;;
47413;SDS011;33163;0.000;0.000;2023-10-08T12:17:45;25.10;;;7.35;;
47413;SDS011;33163;0.000;0.000;2023-10-08T12:20:35;24.20;;;7.90;;
47413;SDS011;33163;0.000;0.000;2023-10-08T12:23:03;30.60;;;8.32;;
47413;SDS011;33163;0.000;0.000;2023-10-08T12:25:31;20.42;;;7.40;;
47413;SDS011;33163;0.000;0.000;2023-10-08T12:27:58;24.17;;;7.35;;
47413;SDS011;33163;0.000;0.000;2023-10-08T12:30:27;24.95;;;8.43;;
47413;SDS011;33163;0.000;0.000;2023-10-08T12:32:56;27.40;;;7.05;;
47413;SDS011;33163;0.000;0.000;2023-10-08T12:35:24;23.00;;;7.70;;
47413;SDS011;33163;0.000;0.000;2023-10-08T12:37:53;26.15;;;8.27;;
47413;SDS011;33163;0.000;0.000;2023-10-08T12:40:20;28.58;;;7.60;;
47413;SDS011;33163;0.000;0.000;2023-10-08T12:42:48;26.17;;;8.43;;
47413;SDS011;33163;0.000;0.000;2023-10-08T12:45:16;27.33;;;8.98;;
47413;SDS011;33163;0.000;0.000;2023-10-08T12:47:46;20.02;;;8.63;;
47413;SDS011;33163;0.000;0.000;2023-10-08T12:50:14;17.77;;;8.45;;
47413;SDS011;33163;0.000;0.000;2023-10-08T12:52:41;29.90;;;9.93;;
47413;SDS011;33163;0.000;0.000;2023-10-08T12:55:19;23.83;;;9.98;;
47413;SDS011;33163;0.000;0.000;2023-10-08T12:57:48;25.10;;;9.77;;
47413;SDS011;33163;0.000;0.000;2023-10-08T13:00:20;30.67;;;12.75;;
47413;SDS011;33163;0.000;0.000;2023-10-08T13:02:51;29.33;;;10.88;;
47413;SDS011;33163;0.000;0.000;2023-10-08T13:05:20;29.08;;;10.63;;
47413;SDS011;33163;0.000;0.000;2023-10-08T13:07:53;28.83;;;10.82;;
47413;SDS011;33163;0.000;0.000;2023-10-08T13:10:21;27.45;;;10.75;;
47413;SDS011;33163;0.000;0.000;2023-10-08T13:12:48;29.60;;;11.52;;
47413;SDS011;33163;0.000;0.000;2023-10-08T13:15:15;31.77;;;11.10;;
47413;SDS011;33163;0.000;0.000;2023-10-08T13:17:42;31.20;;;11.77;;
47413;SDS011;33163;0.000;0.000;2023-10-08T13:20:11;30.17;;;12.20;;
47413;SDS011;33163;0.000;0.000;2023-10-08T13:22:38;33.75;;;12.38;;
47413;SDS011;33163;0.000;0.000;2023-10-08T13:25:05;29.65;;;11.45;;
47413;SDS011;33163;0.000;0.000;2023-10-08T13:27:34;31.92;;;11.77;;
47413;SDS011;33163;0.000;0.000;2023-10-08T13:30:04;31.92;;;11.25;;
47413;SDS011;33163;0.000;0.000;2023-10-08T13:32:33;29.08;;;11.55;;
47413;SDS011;33163;0.000;0.000;2023-10-08T13:35:01;30.80;;;11.95;;
47413;SDS011;33163;0.000;0.000;2023-10-08T13:37:29;31.25;;;11.50;;
47413;SDS011;33163;0.000;0.000;2023-10-08T13:39:57;34.20;;;11.75;;
47413;SDS011;33163;0.000;0.000;2023-10-08T13:42:24;27.17;;;11.60;;
47413;SDS011;33163;0.000;0.000;2023-10-08T13:44:53;37.67;;;12.10;;
47413;SDS011;33163;0.000;0.000;2023-10-08T13:47:22;26.15;;;11.38;;
47413;SDS011;33163;0.000;0.000;2023-10-08T13:49:50;34.00;;;9.93;;
47413;SDS011;33163;0.000;0.000;2023-10-08T13:52:18;22.15;;;9.57;;
47413;SDS011;33163;0.000;0.000;2023-10-08T13:54:45;26.25;;;9.75;;
47413;SDS011;33163;0.000;0.000;2023-10-08T13:57:17;28.02;;;11.25;;
47413;SDS011;33163;0.000;0.000;2023-10-08T13:59:44;26.58;;;10.15;;
47413;SDS011;33163;0.000;0.000;2023-10-08T14:02:12;28.23;;;11.90;;
47413;SDS011;33163;0.000;0.000;2023-10-08T14:04:40;28.27;;;11.75;;
47413;SDS011;33163;0.000;0.000;2023-10-08T14:07:08;33.70;;;11.60;;
47413;SDS011;33163;0.000;0.000;2023-10-08T14:09:36;32.13;;;11.23;;
47413;SDS011;33163;0.000;0.000;2023-10-08T14:12:06;26.55;;;11.23;;
47413;SDS011;33163;0.000;0.000;2023-10-08T14:14:35;30.42;;;12.30;;
47413;SDS011;33163;0.000;0.000;2023-10-08T14:17:06;29.02;;;12.68;;
47413;SDS011;33163;0.000;0.000;2023-10-08T14:19:41;31.38;;;13.35;;
47413;SDS011;33163;0.000;0.000;2023-10-08T14:22:16;28.70;;;12.43;;
47413;SDS011;33163;0.000;0.000;2023-10-08T14:24:47;30.35;;;12.43;;
47413;SDS011;33163;0.000;0.000;2023-10-08T14:27:23;38.78;;;14.43;;
47413;SDS011;33163;0.000;0.000;2023-10-08T14:29:56;30.90;;;11.82;;
47413;SDS011;33163;0.000;0.000;2023-10-08T14:32:26;30.95;;;13.05;;
47413;SDS011;33163;0.000;0.000;2023-10-08T14:34:54;32.67;;;13.23;;
47413;SDS011;33163;0.000;0.000;2023-10-08T14:40:22;33.28;;;11.48;;
47413;SDS011;33163;0.000;0.000;2023-10-08T14:43:06;29.40;;;11.90;;
47413;SDS011;33163;0.000;0.000;2023-10-08T14:45:36;30.50;;;12.52;;
47413;SDS011;33163;0.000;0.000;2023-10-08T14:48:06;30.42;;;12.25;;
47413;SDS011;33163;0.000;0.000;2023-10-08T14:50:37;34.83;;;12.35;;
47413;SDS011;33163;0.000;0.000;2023-10-08T14:53:04;38.70;;;14.27;;
47413;SDS011;33163;0.000;0.000;2023-10-08T14:55:31;35.42;;;13.40;;
47413;SDS011;33163;0.000;0.000;2023-10-08T14:58:00;30.67;;;11.80;;
47413;SDS011;33163;0.000;0.000;2023-10-08T15:00:32;29.58;;;12.50;;
47413;SDS011;33163;0.000;0.000;2023-10-08T15:03:01;26.88;;;10.75;;
47413;SDS011;33163;0.000;0.000;2023-10-08T15:05:28;39.78;;;11.75;;
47413;SDS011;33163;0.000;0.000;2023-10-08T15:07:58;26.40;;;10.40;;
47413;SDS011;33163;0.000;0.000;2023-10-08T15:10:24;31.58;;;10.68;;
47413;SDS011;33163;0.000;0.000;2023-10-08T15:12:51;30.98;;;12.13;;
47413;SDS011;33163;0.000;0.000;2023-10-08T15:15:18;26.17;;;11.05;;
47413;SDS011;33163;0.000;0.000;2023-10-08T15:17:50;26.67;;;11.10;;
47413;SDS011;33163;0.000;0.000;2023-10-08T15:20:17;25.58;;;9.85;;
47413;SDS011;33163;0.000;0.000;2023-10-08T15:22:45;27.30;;;8.93;;